sensor_id;sensor_type;location;lat;lon;timestamp;P1;durP1;ratioP1;P2;durP2;ratioP2
71298;SDS011;59083;47.974;21.722;2023-04-25T00:01:46;19.15;;;12.65;;
71298;SDS011;59083;47.974;21.722;2023-04-25T00:04:48;20.67;;;12.75;;
71298;SDS011;59083;47.974;21.722;2023-04-25T00:07:49;21.10;;;12.82;;
71298;SDS011;59083;47.974;21.722;2023-04-25T00:10:51;21.67;;;12.35;;
71298;SDS011;59083;47.974;21.722;2023-04-25T00:13:52;18.53;;;11.90;;
71298;SDS011;59083;47.974;21.722;2023-04-25T00:16:53;21.87;;;12.37;;
71298;SDS011;59083;47.974;21.722;2023-04-25T00:19:55;19.15;;;12.50;;
71298;SDS011;59083;47.974;21.722;2023-04-25T00:22:56;20.20;;;12.30;;
71298;SDS011;59083;47.974;21.722;2023-04-25T00:25:57;21.92;;;12.45;;
71298;SDS011;59083;47.974;21.722;2023-04-25T00:28:59;19.83;;;12.77;;
71298;SDS011;59083;47.974;21.722;2023-04-25T00:32:00;21.60;;;12.55;;
71298;SDS011;59083;47.974;21.722;2023-04-25T00:35:03;19.70;;;12.98;;
71298;SDS011;59083;47.974;21.722;2023-04-25T00:38:04;21.30;;;13.62;;
71298;SDS011;59083;47.974;21.722;2023-04-25T00:41:06;20.42;;;13.38;;
71298;SDS011;59083;47.974;21.722;2023-04-25T00:44:08;20.83;;;12.47;;
71298;SDS011;59083;47.974;21.722;2023-04-25T00:47:12;20.70;;;13.48;;
71298;SDS011;59083;47.974;21.722;2023-04-25T00:50:13;20.60;;;13.65;;
71298;SDS011;59083;47.974;21.722;2023-04-25T00:53:15;23.30;;;13.50;;
71298;SDS011;59083;47.974;21.722;2023-04-25T00:56:16;22.33;;;13.27;;
71298;SDS011;59083;47.974;21.722;2023-04-25T00:59:19;20.97;;;13.00;;
71298;SDS011;59083;47.974;21.722;2023-04-25T01:02:20;19.42;;;12.90;;
71298;SDS011;59083;47.974;21.722;2023-04-25T01:05:22;20.10;;;12.65;;
71298;SDS011;59083;47.974;21.722;2023-04-25T01:08:24;20.58;;;13.18;;
71298;SDS011;59083;47.974;21.722;2023-04-25T01:11:28;23.98;;;13.27;;
71298;SDS011;59083;47.974;21.722;2023-04-25T01:14:30;20.83;;;13.10;;
71298;SDS011;59083;47.974;21.722;2023-04-25T01:17:33;18.48;;;12.37;;
71298;SDS011;59083;47.974;21.722;2023-04-25T01:20:35;20.60;;;13.38;;
71298;SDS011;59083;47.974;21.722;2023-04-25T01:23:39;20.48;;;13.07;;
71298;SDS011;59083;47.974;21.722;2023-04-25T01:26:41;24.73;;;13.82;;
71298;SDS011;59083;47.974;21.722;2023-04-25T01:29:51;26.23;;;13.73;;
71298;SDS011;59083;47.974;21.722;2023-04-25T01:32:54;21.27;;;13.65;;
71298;SDS011;59083;47.974;21.722;2023-04-25T01:35:56;21.45;;;13.68;;
71298;SDS011;59083;47.974;21.722;2023-04-25T01:38:58;24.15;;;14.43;;
71298;SDS011;59083;47.974;21.722;2023-04-25T01:41:59;21.65;;;14.27;;
71298;SDS011;59083;47.974;21.722;2023-04-25T01:45:01;22.27;;;14.50;;
71298;SDS011;59083;47.974;21.722;2023-04-25T01:48:03;25.58;;;15.02;;
71298;SDS011;59083;47.974;21.722;2023-04-25T01:51:04;27.40;;;15.73;;
71298;SDS011;59083;47.974;21.722;2023-04-25T01:54:06;28.30;;;16.40;;
71298;SDS011;59083;47.974;21.722;2023-04-25T01:57:08;28.02;;;16.25;;
71298;SDS011;59083;47.974;21.722;2023-04-25T02:00:11;37.27;;;17.13;;
71298;SDS011;59083;47.974;21.722;2023-04-25T02:03:12;26.20;;;16.17;;
71298;SDS011;59083;47.974;21.722;2023-04-25T02:06:14;23.25;;;14.52;;
71298;SDS011;59083;47.974;21.722;2023-04-25T02:09:16;24.17;;;15.02;;
71298;SDS011;59083;47.974;21.722;2023-04-25T02:12:18;21.45;;;13.50;;
71298;SDS011;59083;47.974;21.722;2023-04-25T02:15:22;21.57;;;13.80;;
71298;SDS011;59083;47.974;21.722;2023-04-25T02:18:23;24.40;;;14.95;;
71298;SDS011;59083;47.974;21.722;2023-04-25T02:21:25;21.10;;;12.77;;
71298;SDS011;59083;47.974;21.722;2023-04-25T02:24:27;21.58;;;13.88;;
71298;SDS011;59083;47.974;21.722;2023-04-25T02:27:30;22.35;;;13.45;;
71298;SDS011;59083;47.974;21.722;2023-04-25T02:30:31;21.70;;;13.47;;
71298;SDS011;59083;47.974;21.722;2023-04-25T02:33:33;21.20;;;13.15;;
71298;SDS011;59083;47.974;21.722;2023-04-25T02:36:34;21.95;;;13.80;;
71298;SDS011;59083;47.974;21.722;2023-04-25T02:39:36;21.15;;;13.77;;
71298;SDS011;59083;47.974;21.722;2023-04-25T02:42:37;21.05;;;13.25;;
71298;SDS011;59083;47.974;21.722;2023-04-25T02:45:38;21.80;;;13.17;;
71298;SDS011;59083;47.974;21.722;2023-04-25T02:48:39;20.00;;;13.02;;
71298;SDS011;59083;47.974;21.722;2023-04-25T02:51:40;20.42;;;13.02;;
71298;SDS011;59083;47.974;21.722;2023-04-25T02:54:42;20.98;;;13.25;;
71298;SDS011;59083;47.974;21.722;2023-04-25T02:57:44;19.80;;;12.88;;
71298;SDS011;59083;47.974;21.722;2023-04-25T03:00:45;26.23;;;16.90;;
71298;SDS011;59083;47.974;21.722;2023-04-25T03:03:46;19.30;;;12.43;;
71298;SDS011;59083;47.974;21.722;2023-04-25T03:06:48;19.62;;;11.85;;
71298;SDS011;59083;47.974;21.722;2023-04-25T03:09:49;19.67;;;12.73;;
71298;SDS011;59083;47.974;21.722;2023-04-25T03:12:50;21.60;;;13.10;;
71298;SDS011;59083;47.974;21.722;2023-04-25T03:15:51;20.90;;;13.30;;
71298;SDS011;59083;47.974;21.722;2023-04-25T03:18:53;20.08;;;12.80;;
71298;SDS011;59083;47.974;21.722;2023-04-25T03:21:54;19.85;;;12.60;;
71298;SDS011;59083;47.974;21.722;2023-04-25T03:24:55;21.27;;;13.05;;
71298;SDS011;59083;47.974;21.722;2023-04-25T03:27:56;20.23;;;13.02;;
71298;SDS011;59083;47.974;21.722;2023-04-25T03:30:58;19.63;;;12.27;;
71298;SDS011;59083;47.974;21.722;2023-04-25T03:33:59;20.60;;;13.13;;
71298;SDS011;59083;47.974;21.722;2023-04-25T03:37:00;20.70;;;12.90;;
71298;SDS011;59083;47.974;21.722;2023-04-25T03:40:01;19.55;;;12.77;;
71298;SDS011;59083;47.974;21.722;2023-04-25T03:43:04;21.12;;;12.70;;
71298;SDS011;59083;47.974;21.722;2023-04-25T03:46:05;23.80;;;13.57;;
71298;SDS011;59083;47.974;21.722;2023-04-25T03:49:07;24.50;;;12.93;;
71298;SDS011;59083;47.974;21.722;2023-04-25T03:52:08;20.55;;;13.70;;
71298;SDS011;59083;47.974;21.722;2023-04-25T03:55:10;21.55;;;13.68;;
71298;SDS011;59083;47.974;21.722;2023-04-25T03:58:11;22.87;;;13.35;;
71298;SDS011;59083;47.974;21.722;2023-04-25T04:01:12;25.00;;;14.37;;
71298;SDS011;59083;47.974;21.722;2023-04-25T04:04:14;22.33;;;13.70;;
71298;SDS011;59083;47.974;21.722;2023-04-25T04:07:15;22.58;;;14.40;;
71298;SDS011;59083;47.974;21.722;2023-04-25T04:10:18;31.73;;;13.98;;
71298;SDS011;59083;47.974;21.722;2023-04-25T04:13:19;22.50;;;14.15;;
71298;SDS011;59083;47.974;21.722;2023-04-25T04:16:20;22.30;;;14.43;;
71298;SDS011;59083;47.974;21.722;2023-04-25T04:19:22;23.50;;;15.07;;
71298;SDS011;59083;47.974;21.722;2023-04-25T04:22:24;22.05;;;14.20;;
71298;SDS011;59083;47.974;21.722;2023-04-25T04:25:26;23.83;;;14.23;;
71298;SDS011;59083;47.974;21.722;2023-04-25T04:28:32;23.92;;;14.65;;
71298;SDS011;59083;47.974;21.722;2023-04-25T04:31:33;23.27;;;14.83;;
71298;SDS011;59083;47.974;21.722;2023-04-25T04:34:35;24.80;;;14.50;;
71298;SDS011;59083;47.974;21.722;2023-04-25T04:37:37;20.88;;;13.62;;
71298;SDS011;59083;47.974;21.722;2023-04-25T04:40:38;20.30;;;13.23;;
71298;SDS011;59083;47.974;21.722;2023-04-25T04:43:40;21.27;;;13.98;;
71298;SDS011;59083;47.974;21.722;2023-04-25T04:46:42;24.63;;;14.47;;
71298;SDS011;59083;47.974;21.722;2023-04-25T04:49:45;24.30;;;14.45;;
71298;SDS011;59083;47.974;21.722;2023-04-25T04:52:48;22.48;;;14.35;;
71298;SDS011;59083;47.974;21.722;2023-04-25T04:55:50;26.00;;;14.57;;
71298;SDS011;59083;47.974;21.722;2023-04-25T04:58:54;24.50;;;13.95;;
71298;SDS011;59083;47.974;21.722;2023-04-25T05:01:55;22.73;;;13.70;;
71298;SDS011;59083;47.974;21.722;2023-04-25T05:04:57;22.20;;;14.65;;
71298;SDS011;59083;47.974;21.722;2023-04-25T05:07:58;23.42;;;14.60;;
71298;SDS011;59083;47.974;21.722;2023-04-25T05:11:00;21.85;;;14.20;;
71298;SDS011;59083;47.974;21.722;2023-04-25T05:14:01;27.40;;;14.55;;
71298;SDS011;59083;47.974;21.722;2023-04-25T05:17:07;23.53;;;14.47;;
71298;SDS011;59083;47.974;21.722;2023-04-25T05:20:09;25.55;;;15.32;;
71298;SDS011;59083;47.974;21.722;2023-04-25T05:23:12;22.37;;;13.38;;
71298;SDS011;59083;47.974;21.722;2023-04-25T05:26:14;20.92;;;13.57;;
71298;SDS011;59083;47.974;21.722;2023-04-25T05:29:16;23.17;;;14.30;;
71298;SDS011;59083;47.974;21.722;2023-04-25T05:32:18;18.97;;;12.43;;
71298;SDS011;59083;47.974;21.722;2023-04-25T05:35:21;19.27;;;12.35;;
71298;SDS011;59083;47.974;21.722;2023-04-25T05:38:22;20.08;;;12.15;;
71298;SDS011;59083;47.974;21.722;2023-04-25T05:41:26;21.87;;;12.30;;
71298;SDS011;59083;47.974;21.722;2023-04-25T05:44:27;17.90;;;11.80;;
71298;SDS011;59083;47.974;21.722;2023-04-25T05:47:30;18.13;;;11.90;;
71298;SDS011;59083;47.974;21.722;2023-04-25T05:50:32;18.23;;;12.10;;
71298;SDS011;59083;47.974;21.722;2023-04-25T05:53:34;16.73;;;10.55;;
71298;SDS011;59083;47.974;21.722;2023-04-25T05:56:35;15.82;;;11.05;;
71298;SDS011;59083;47.974;21.722;2023-04-25T05:59:36;17.17;;;10.82;;
71298;SDS011;59083;47.974;21.722;2023-04-25T06:02:38;17.57;;;11.67;;
71298;SDS011;59083;47.974;21.722;2023-04-25T06:05:40;17.73;;;11.38;;
71298;SDS011;59083;47.974;21.722;2023-04-25T06:08:42;22.08;;;15.05;;
71298;SDS011;59083;47.974;21.722;2023-04-25T06:11:45;19.58;;;12.30;;
71298;SDS011;59083;47.974;21.722;2023-04-25T06:14:46;17.27;;;11.57;;
71298;SDS011;59083;47.974;21.722;2023-04-25T06:17:48;17.80;;;12.07;;
71298;SDS011;59083;47.974;21.722;2023-04-25T06:20:49;16.27;;;11.18;;
71298;SDS011;59083;47.974;21.722;2023-04-25T06:23:51;17.27;;;11.73;;
71298;SDS011;59083;47.974;21.722;2023-04-25T06:26:53;17.12;;;11.90;;
71298;SDS011;59083;47.974;21.722;2023-04-25T06:29:55;16.08;;;11.60;;
71298;SDS011;59083;47.974;21.722;2023-04-25T06:32:56;17.70;;;11.47;;
71298;SDS011;59083;47.974;21.722;2023-04-25T06:35:58;17.17;;;11.75;;
71298;SDS011;59083;47.974;21.722;2023-04-25T06:39:01;17.50;;;11.73;;
71298;SDS011;59083;47.974;21.722;2023-04-25T06:42:03;17.33;;;12.02;;
71298;SDS011;59083;47.974;21.722;2023-04-25T06:45:07;19.77;;;12.32;;
71298;SDS011;59083;47.974;21.722;2023-04-25T06:48:10;17.10;;;11.47;;
71298;SDS011;59083;47.974;21.722;2023-04-25T06:51:11;19.02;;;12.32;;
71298;SDS011;59083;47.974;21.722;2023-04-25T06:54:14;17.60;;;12.23;;
71298;SDS011;59083;47.974;21.722;2023-04-25T06:57:19;18.62;;;12.05;;
71298;SDS011;59083;47.974;21.722;2023-04-25T07:00:20;15.95;;;10.63;;
71298;SDS011;59083;47.974;21.722;2023-04-25T07:03:22;18.73;;;12.70;;
71298;SDS011;59083;47.974;21.722;2023-04-25T07:06:23;23.12;;;14.30;;
71298;SDS011;59083;47.974;21.722;2023-04-25T07:09:27;17.58;;;11.82;;
71298;SDS011;59083;47.974;21.722;2023-04-25T07:12:29;19.67;;;11.70;;
71298;SDS011;59083;47.974;21.722;2023-04-25T07:15:30;19.33;;;11.82;;
71298;SDS011;59083;47.974;21.722;2023-04-25T07:18:32;17.83;;;11.70;;
71298;SDS011;59083;47.974;21.722;2023-04-25T07:21:34;15.48;;;11.02;;
71298;SDS011;59083;47.974;21.722;2023-04-25T07:24:37;20.12;;;11.82;;
71298;SDS011;59083;47.974;21.722;2023-04-25T07:27:40;19.42;;;12.18;;
71298;SDS011;59083;47.974;21.722;2023-04-25T07:30:42;19.12;;;12.27;;
71298;SDS011;59083;47.974;21.722;2023-04-25T07:33:44;17.50;;;11.87;;
71298;SDS011;59083;47.974;21.722;2023-04-25T07:36:46;19.85;;;11.05;;
71298;SDS011;59083;47.974;21.722;2023-04-25T07:39:48;19.25;;;12.05;;
71298;SDS011;59083;47.974;21.722;2023-04-25T07:42:50;16.40;;;10.55;;
71298;SDS011;59083;47.974;21.722;2023-04-25T07:45:52;15.02;;;10.43;;
71298;SDS011;59083;47.974;21.722;2023-04-25T07:48:53;15.23;;;10.20;;
71298;SDS011;59083;47.974;21.722;2023-04-25T07:51:56;15.65;;;10.43;;
71298;SDS011;59083;47.974;21.722;2023-04-25T07:54:58;17.37;;;11.48;;
71298;SDS011;59083;47.974;21.722;2023-04-25T07:58:00;16.48;;;10.40;;
71298;SDS011;59083;47.974;21.722;2023-04-25T08:01:03;17.85;;;11.20;;
71298;SDS011;59083;47.974;21.722;2023-04-25T08:04:05;15.73;;;10.47;;
71298;SDS011;59083;47.974;21.722;2023-04-25T08:07:07;15.35;;;10.40;;
71298;SDS011;59083;47.974;21.722;2023-04-25T08:10:10;18.23;;;11.10;;
71298;SDS011;59083;47.974;21.722;2023-04-25T08:13:11;16.58;;;11.07;;
71298;SDS011;59083;47.974;21.722;2023-04-25T08:16:13;16.25;;;10.80;;
71298;SDS011;59083;47.974;21.722;2023-04-25T08:19:15;17.97;;;11.57;;
71298;SDS011;59083;47.974;21.722;2023-04-25T08:22:17;19.58;;;11.00;;
71298;SDS011;59083;47.974;21.722;2023-04-25T08:25:19;18.45;;;10.52;;
71298;SDS011;59083;47.974;21.722;2023-04-25T08:28:21;15.90;;;9.85;;
71298;SDS011;59083;47.974;21.722;2023-04-25T08:31:22;17.75;;;10.98;;
71298;SDS011;59083;47.974;21.722;2023-04-25T08:34:24;18.23;;;11.27;;
71298;SDS011;59083;47.974;21.722;2023-04-25T08:37:27;20.30;;;11.52;;
71298;SDS011;59083;47.974;21.722;2023-04-25T08:40:29;21.62;;;12.55;;
71298;SDS011;59083;47.974;21.722;2023-04-25T08:43:31;24.80;;;14.30;;
71298;SDS011;59083;47.974;21.722;2023-04-25T08:46:33;25.70;;;14.48;;
71298;SDS011;59083;47.974;21.722;2023-04-25T08:49:35;31.27;;;15.53;;
71298;SDS011;59083;47.974;21.722;2023-04-25T08:52:43;25.27;;;15.10;;
71298;SDS011;59083;47.974;21.722;2023-04-25T08:55:46;27.58;;;15.57;;
71298;SDS011;59083;47.974;21.722;2023-04-25T08:58:49;29.58;;;16.02;;
71298;SDS011;59083;47.974;21.722;2023-04-25T09:01:51;26.33;;;16.27;;
71298;SDS011;59083;47.974;21.722;2023-04-25T09:04:55;27.90;;;16.53;;
71298;SDS011;59083;47.974;21.722;2023-04-25T09:07:58;28.33;;;16.52;;
71298;SDS011;59083;47.974;21.722;2023-04-25T09:10:59;28.17;;;17.83;;
71298;SDS011;59083;47.974;21.722;2023-04-25T09:14:17;26.95;;;17.60;;
71298;SDS011;59083;47.974;21.722;2023-04-25T09:17:25;29.75;;;17.67;;
71298;SDS011;59083;47.974;21.722;2023-04-25T09:20:26;33.67;;;19.13;;
71298;SDS011;59083;47.974;21.722;2023-04-25T09:23:29;18.50;;;10.48;;
71298;SDS011;59083;47.974;21.722;2023-04-25T09:26:31;12.18;;;5.60;;
71298;SDS011;59083;47.974;21.722;2023-04-25T09:29:34;6.97;;;3.10;;
71298;SDS011;59083;47.974;21.722;2023-04-25T09:32:37;9.27;;;3.17;;
71298;SDS011;59083;47.974;21.722;2023-04-25T09:35:42;17.20;;;6.33;;
71298;SDS011;59083;47.974;21.722;2023-04-25T09:38:46;7.97;;;2.28;;
71298;SDS011;59083;47.974;21.722;2023-04-25T09:41:53;5.65;;;2.20;;
71298;SDS011;59083;47.974;21.722;2023-04-25T09:44:55;6.28;;;2.00;;
71298;SDS011;59083;47.974;21.722;2023-04-25T09:47:59;7.40;;;1.90;;
71298;SDS011;59083;47.974;21.722;2023-04-25T09:54:09;6.00;;;2.20;;
71298;SDS011;59083;47.974;21.722;2023-04-25T09:57:18;6.28;;;1.98;;
71298;SDS011;59083;47.974;21.722;2023-04-25T10:00:21;4.35;;;1.77;;
71298;SDS011;59083;47.974;21.722;2023-04-25T10:03:22;4.22;;;2.05;;
71298;SDS011;59083;47.974;21.722;2023-04-25T10:06:28;4.80;;;1.80;;
71298;SDS011;59083;47.974;21.722;2023-04-25T10:09:30;7.25;;;2.37;;
71298;SDS011;59083;47.974;21.722;2023-04-25T10:12:34;7.12;;;2.10;;
71298;SDS011;59083;47.974;21.722;2023-04-25T10:15:36;6.97;;;2.42;;
71298;SDS011;59083;47.974;21.722;2023-04-25T10:18:38;5.97;;;2.40;;
71298;SDS011;59083;47.974;21.722;2023-04-25T10:21:40;7.20;;;2.43;;
71298;SDS011;59083;47.974;21.722;2023-04-25T10:24:49;7.25;;;2.85;;
71298;SDS011;59083;47.974;21.722;2023-04-25T10:27:52;4.95;;;2.50;;
71298;SDS011;59083;47.974;21.722;2023-04-25T10:31:01;6.62;;;2.92;;
71298;SDS011;59083;47.974;21.722;2023-04-25T10:34:05;8.00;;;2.70;;
71298;SDS011;59083;47.974;21.722;2023-04-25T10:37:10;5.80;;;3.07;;
71298;SDS011;59083;47.974;21.722;2023-04-25T10:40:12;4.40;;;2.22;;
71298;SDS011;59083;47.974;21.722;2023-04-25T10:46:34;4.35;;;2.10;;
71298;SDS011;59083;47.974;21.722;2023-04-25T10:49:37;7.60;;;2.40;;
71298;SDS011;59083;47.974;21.722;2023-04-25T10:52:42;6.57;;;2.50;;
71298;SDS011;59083;47.974;21.722;2023-04-25T10:55:51;5.87;;;2.40;;
71298;SDS011;59083;47.974;21.722;2023-04-25T10:59:10;5.95;;;2.58;;
71298;SDS011;59083;47.974;21.722;2023-04-25T11:02:12;4.62;;;2.22;;
71298;SDS011;59083;47.974;21.722;2023-04-25T11:05:20;5.55;;;2.50;;
71298;SDS011;59083;47.974;21.722;2023-04-25T11:08:29;5.30;;;2.60;;
71298;SDS011;59083;47.974;21.722;2023-04-25T11:11:42;5.90;;;2.58;;
71298;SDS011;59083;47.974;21.722;2023-04-25T11:14:44;5.87;;;2.60;;
71298;SDS011;59083;47.974;21.722;2023-04-25T11:17:45;6.25;;;2.60;;
71298;SDS011;59083;47.974;21.722;2023-04-25T11:20:47;5.40;;;2.70;;
71298;SDS011;59083;47.974;21.722;2023-04-25T11:23:49;7.30;;;3.03;;
71298;SDS011;59083;47.974;21.722;2023-04-25T11:26:50;6.47;;;3.00;;
71298;SDS011;59083;47.974;21.722;2023-04-25T11:29:52;5.60;;;2.25;;
71298;SDS011;59083;47.974;21.722;2023-04-25T11:32:56;4.65;;;2.33;;
71298;SDS011;59083;47.974;21.722;2023-04-25T11:35:57;4.50;;;2.10;;
71298;SDS011;59083;47.974;21.722;2023-04-25T11:38:59;9.37;;;2.57;;
71298;SDS011;59083;47.974;21.722;2023-04-25T11:42:00;6.03;;;2.67;;
71298;SDS011;59083;47.974;21.722;2023-04-25T11:45:02;4.95;;;2.28;;
71298;SDS011;59083;47.974;21.722;2023-04-25T11:48:05;6.07;;;2.50;;
71298;SDS011;59083;47.974;21.722;2023-04-25T11:51:06;5.68;;;2.60;;
71298;SDS011;59083;47.974;21.722;2023-04-25T11:54:08;4.90;;;2.57;;
71298;SDS011;59083;47.974;21.722;2023-04-25T11:57:09;7.00;;;2.83;;
71298;SDS011;59083;47.974;21.722;2023-04-25T12:00:12;6.00;;;3.10;;
71298;SDS011;59083;47.974;21.722;2023-04-25T12:03:17;5.32;;;2.60;;
71298;SDS011;59083;47.974;21.722;2023-04-25T12:06:19;5.37;;;2.80;;
71298;SDS011;59083;47.974;21.722;2023-04-25T12:09:21;4.73;;;2.60;;
71298;SDS011;59083;47.974;21.722;2023-04-25T12:12:33;5.28;;;2.67;;
71298;SDS011;59083;47.974;21.722;2023-04-25T12:15:35;5.47;;;2.45;;
71298;SDS011;59083;47.974;21.722;2023-04-25T12:18:38;6.07;;;2.58;;
71298;SDS011;59083;47.974;21.722;2023-04-25T12:21:39;5.05;;;2.58;;
71298;SDS011;59083;47.974;21.722;2023-04-25T12:24:44;5.03;;;2.50;;
71298;SDS011;59083;47.974;21.722;2023-04-25T12:27:45;4.35;;;2.35;;
71298;SDS011;59083;47.974;21.722;2023-04-25T12:33:56;5.12;;;2.70;;
71298;SDS011;59083;47.974;21.722;2023-04-25T12:36:58;9.40;;;2.67;;
71298;SDS011;59083;47.974;21.722;2023-04-25T12:39:59;5.43;;;2.20;;
71298;SDS011;59083;47.974;21.722;2023-04-25T12:43:00;6.03;;;3.17;;
71298;SDS011;59083;47.974;21.722;2023-04-25T12:46:01;5.62;;;2.33;;
71298;SDS011;59083;47.974;21.722;2023-04-25T12:49:03;5.30;;;2.60;;
71298;SDS011;59083;47.974;21.722;2023-04-25T12:52:06;5.28;;;2.05;;
71298;SDS011;59083;47.974;21.722;2023-04-25T12:55:08;4.10;;;1.90;;
71298;SDS011;59083;47.974;21.722;2023-04-25T12:58:09;5.50;;;2.20;;
71298;SDS011;59083;47.974;21.722;2023-04-25T13:01:11;5.05;;;2.17;;
71298;SDS011;59083;47.974;21.722;2023-04-25T13:04:13;5.57;;;2.80;;
71298;SDS011;59083;47.974;21.722;2023-04-25T13:07:14;4.78;;;2.00;;
71298;SDS011;59083;47.974;21.722;2023-04-25T13:10:16;3.57;;;1.80;;
71298;SDS011;59083;47.974;21.722;2023-04-25T13:13:18;4.72;;;1.60;;
71298;SDS011;59083;47.974;21.722;2023-04-25T13:16:20;5.60;;;2.20;;
71298;SDS011;59083;47.974;21.722;2023-04-25T13:19:22;3.67;;;1.70;;
71298;SDS011;59083;47.974;21.722;2023-04-25T13:22:23;8.48;;;2.42;;
71298;SDS011;59083;47.974;21.722;2023-04-25T13:25:24;4.63;;;2.23;;
71298;SDS011;59083;47.974;21.722;2023-04-25T13:28:26;4.05;;;1.67;;
71298;SDS011;59083;47.974;21.722;2023-04-25T13:31:27;4.25;;;1.80;;
71298;SDS011;59083;47.974;21.722;2023-04-25T13:34:28;2.95;;;1.50;;
71298;SDS011;59083;47.974;21.722;2023-04-25T13:37:30;2.97;;;1.50;;
71298;SDS011;59083;47.974;21.722;2023-04-25T13:40:33;3.43;;;1.60;;
71298;SDS011;59083;47.974;21.722;2023-04-25T13:43:34;3.53;;;1.77;;
71298;SDS011;59083;47.974;21.722;2023-04-25T13:46:35;4.12;;;1.40;;
71298;SDS011;59083;47.974;21.722;2023-04-25T13:49:38;3.08;;;1.42;;
71298;SDS011;59083;47.974;21.722;2023-04-25T13:52:39;3.85;;;1.70;;
71298;SDS011;59083;47.974;21.722;2023-04-25T13:55:41;4.70;;;2.00;;
71298;SDS011;59083;47.974;21.722;2023-04-25T13:58:42;3.92;;;1.83;;
71298;SDS011;59083;47.974;21.722;2023-04-25T14:01:43;5.75;;;1.87;;
71298;SDS011;59083;47.974;21.722;2023-04-25T14:04:44;4.32;;;1.50;;
71298;SDS011;59083;47.974;21.722;2023-04-25T14:07:46;3.33;;;1.65;;
71298;SDS011;59083;47.974;21.722;2023-04-25T14:10:47;4.93;;;2.00;;
71298;SDS011;59083;47.974;21.722;2023-04-25T14:13:48;4.47;;;1.62;;
71298;SDS011;59083;47.974;21.722;2023-04-25T14:16:50;3.85;;;1.70;;
71298;SDS011;59083;47.974;21.722;2023-04-25T14:19:52;5.00;;;1.87;;
71298;SDS011;59083;47.974;21.722;2023-04-25T14:22:53;7.55;;;3.25;;
71298;SDS011;59083;47.974;21.722;2023-04-25T14:25:56;4.73;;;2.00;;
71298;SDS011;59083;47.974;21.722;2023-04-25T14:28:57;4.95;;;2.12;;
71298;SDS011;59083;47.974;21.722;2023-04-25T14:31:59;6.80;;;2.17;;
71298;SDS011;59083;47.974;21.722;2023-04-25T14:35:00;4.80;;;2.30;;
71298;SDS011;59083;47.974;21.722;2023-04-25T14:38:01;5.70;;;2.58;;
71298;SDS011;59083;47.974;21.722;2023-04-25T14:41:03;6.80;;;2.30;;
71298;SDS011;59083;47.974;21.722;2023-04-25T14:44:04;4.25;;;2.00;;
71298;SDS011;59083;47.974;21.722;2023-04-25T14:47:05;5.45;;;2.50;;
71298;SDS011;59083;47.974;21.722;2023-04-25T14:50:07;6.43;;;2.55;;
71298;SDS011;59083;47.974;21.722;2023-04-25T14:53:09;5.25;;;2.40;;
71298;SDS011;59083;47.974;21.722;2023-04-25T14:56:10;7.20;;;2.60;;
71298;SDS011;59083;47.974;21.722;2023-04-25T14:59:12;6.78;;;2.67;;
71298;SDS011;59083;47.974;21.722;2023-04-25T15:02:13;7.35;;;2.92;;
71298;SDS011;59083;47.974;21.722;2023-04-25T15:05:14;6.97;;;3.25;;
71298;SDS011;59083;47.974;21.722;2023-04-25T15:08:16;5.18;;;2.53;;
71298;SDS011;59083;47.974;21.722;2023-04-25T15:11:18;5.57;;;2.50;;
71298;SDS011;59083;47.974;21.722;2023-04-25T15:14:21;6.55;;;3.20;;
71298;SDS011;59083;47.974;21.722;2023-04-25T15:17:22;5.97;;;2.62;;
71298;SDS011;59083;47.974;21.722;2023-04-25T15:20:24;5.82;;;2.67;;
71298;SDS011;59083;47.974;21.722;2023-04-25T15:23:26;6.60;;;3.28;;
71298;SDS011;59083;47.974;21.722;2023-04-25T15:26:27;6.10;;;2.97;;
71298;SDS011;59083;47.974;21.722;2023-04-25T15:29:28;6.37;;;3.00;;
71298;SDS011;59083;47.974;21.722;2023-04-25T15:32:30;7.50;;;3.17;;
71298;SDS011;59083;47.974;21.722;2023-04-25T15:35:32;6.25;;;3.08;;
71298;SDS011;59083;47.974;21.722;2023-04-25T15:38:33;6.37;;;3.10;;
71298;SDS011;59083;47.974;21.722;2023-04-25T15:41:35;6.07;;;3.30;;
71298;SDS011;59083;47.974;21.722;2023-04-25T15:44:36;7.75;;;3.90;;
71298;SDS011;59083;47.974;21.722;2023-04-25T15:47:38;7.32;;;3.47;;
71298;SDS011;59083;47.974;21.722;2023-04-25T15:50:39;6.80;;;3.30;;
71298;SDS011;59083;47.974;21.722;2023-04-25T15:53:41;6.45;;;3.30;;
71298;SDS011;59083;47.974;21.722;2023-04-25T15:56:42;7.10;;;3.37;;
71298;SDS011;59083;47.974;21.722;2023-04-25T15:59:45;7.50;;;3.40;;
71298;SDS011;59083;47.974;21.722;2023-04-25T16:02:46;12.90;;;6.30;;
71298;SDS011;59083;47.974;21.722;2023-04-25T16:05:50;7.95;;;4.50;;
71298;SDS011;59083;47.974;21.722;2023-04-25T16:08:52;7.30;;;4.10;;
71298;SDS011;59083;47.974;21.722;2023-04-25T16:11:55;8.97;;;3.70;;
71298;SDS011;59083;47.974;21.722;2023-04-25T16:14:56;17.87;;;8.75;;
71298;SDS011;59083;47.974;21.722;2023-04-25T16:17:58;9.68;;;5.28;;
71298;SDS011;59083;47.974;21.722;2023-04-25T16:20:59;9.93;;;5.32;;
71298;SDS011;59083;47.974;21.722;2023-04-25T16:24:00;6.40;;;3.58;;
71298;SDS011;59083;47.974;21.722;2023-04-25T16:27:01;6.10;;;3.17;;
71298;SDS011;59083;47.974;21.722;2023-04-25T16:30:04;6.18;;;3.40;;
71298;SDS011;59083;47.974;21.722;2023-04-25T16:33:09;7.03;;;3.55;;
71298;SDS011;59083;47.974;21.722;2023-04-25T16:36:10;7.97;;;3.90;;
71298;SDS011;59083;47.974;21.722;2023-04-25T16:39:14;8.40;;;4.15;;
71298;SDS011;59083;47.974;21.722;2023-04-25T16:42:16;6.30;;;3.40;;
71298;SDS011;59083;47.974;21.722;2023-04-25T16:45:17;7.57;;;3.90;;
71298;SDS011;59083;47.974;21.722;2023-04-25T16:48:20;6.90;;;3.85;;
71298;SDS011;59083;47.974;21.722;2023-04-25T16:51:23;7.12;;;3.80;;
71298;SDS011;59083;47.974;21.722;2023-04-25T16:54:26;9.35;;;4.50;;
71298;SDS011;59083;47.974;21.722;2023-04-25T16:57:27;7.83;;;3.70;;
71298;SDS011;59083;47.974;21.722;2023-04-25T17:00:28;6.97;;;3.40;;
71298;SDS011;59083;47.974;21.722;2023-04-25T17:03:29;6.95;;;3.50;;
71298;SDS011;59083;47.974;21.722;2023-04-25T17:06:32;8.65;;;3.72;;
71298;SDS011;59083;47.974;21.722;2023-04-25T17:09:33;7.97;;;3.30;;
71298;SDS011;59083;47.974;21.722;2023-04-25T17:12:34;5.97;;;2.60;;
71298;SDS011;59083;47.974;21.722;2023-04-25T17:15:35;7.93;;;2.70;;
71298;SDS011;59083;47.974;21.722;2023-04-25T17:18:37;6.45;;;3.00;;
71298;SDS011;59083;47.974;21.722;2023-04-25T17:21:38;33.90;;;15.38;;
71298;SDS011;59083;47.974;21.722;2023-04-25T17:24:39;7.90;;;3.75;;
71298;SDS011;59083;47.974;21.722;2023-04-25T17:27:41;6.03;;;2.50;;
71298;SDS011;59083;47.974;21.722;2023-04-25T17:30:43;5.12;;;2.37;;
71298;SDS011;59083;47.974;21.722;2023-04-25T17:33:44;8.20;;;3.20;;
71298;SDS011;59083;47.974;21.722;2023-04-25T17:36:45;8.20;;;3.53;;
71298;SDS011;59083;47.974;21.722;2023-04-25T17:39:47;6.57;;;2.90;;
71298;SDS011;59083;47.974;21.722;2023-04-25T17:42:49;5.87;;;2.77;;
71298;SDS011;59083;47.974;21.722;2023-04-25T17:45:51;6.40;;;2.80;;
71298;SDS011;59083;47.974;21.722;2023-04-25T17:48:53;5.55;;;2.80;;
71298;SDS011;59083;47.974;21.722;2023-04-25T17:51:57;6.10;;;2.80;;
71298;SDS011;59083;47.974;21.722;2023-04-25T17:54:58;6.20;;;2.85;;